sensor_id;sensor_type;location;lat;lon;timestamp;P1;durP1;ratioP1;P2;durP2;ratioP2
4726;SDS011;2377;51.734;8.950;2022-07-15T00:02:27;2.83;;;1.40;;
4726;SDS011;2377;51.734;8.950;2022-07-15T00:04:54;3.73;;;1.70;;
4726;SDS011;2377;51.734;8.950;2022-07-15T00:07:21;3.80;;;1.43;;
4726;SDS011;2377;51.734;8.950;2022-07-15T00:09:48;2.40;;;1.20;;
4726;SDS011;2377;51.734;8.950;2022-07-15T00:12:34;4.03;;;1.37;;
4726;SDS011;2377;51.734;8.950;2022-07-15T00:15:02;2.97;;;1.57;;
4726;SDS011;2377;51.734;8.950;2022-07-15T00:17:30;2.70;;;1.40;;
4726;SDS011;2377;51.734;8.950;2022-07-15T00:19:57;5.20;;;1.90;;
4726;SDS011;2377;51.734;8.950;2022-07-15T00:22:24;9.00;;;1.90;;
4726;SDS011;2377;51.734;8.950;2022-07-15T00:24:51;4.30;;;1.67;;
4726;SDS011;2377;51.734;8.950;2022-07-15T00:27:19;5.13;;;1.77;;
4726;SDS011;2377;51.734;8.950;2022-07-15T00:29:47;4.80;;;1.90;;
4726;SDS011;2377;51.734;8.950;2022-07-15T00:32:15;6.97;;;1.63;;
4726;SDS011;2377;51.734;8.950;2022-07-15T00:34:43;3.37;;;1.67;;
4726;SDS011;2377;51.734;8.950;2022-07-15T00:37:10;4.37;;;1.50;;
4726;SDS011;2377;51.734;8.950;2022-07-15T00:39:37;2.87;;;1.67;;
4726;SDS011;2377;51.734;8.950;2022-07-15T00:42:04;3.87;;;1.60;;
4726;SDS011;2377;51.734;8.950;2022-07-15T00:44:31;5.23;;;1.67;;
4726;SDS011;2377;51.734;8.950;2022-07-15T00:47:00;4.47;;;1.57;;
4726;SDS011;2377;51.734;8.950;2022-07-15T00:49:28;3.33;;;1.70;;
4726;SDS011;2377;51.734;8.950;2022-07-15T00:51:55;8.83;;;1.60;;
4726;SDS011;2377;51.734;8.950;2022-07-15T00:54:24;5.00;;;1.80;;
4726;SDS011;2377;51.734;8.950;2022-07-15T00:56:53;4.67;;;1.80;;
4726;SDS011;2377;51.734;8.950;2022-07-15T00:59:23;5.10;;;1.87;;
4726;SDS011;2377;51.734;8.950;2022-07-15T01:01:57;3.70;;;1.93;;
4726;SDS011;2377;51.734;8.950;2022-07-15T01:04:26;5.07;;;1.77;;
4726;SDS011;2377;51.734;8.950;2022-07-15T01:06:55;7.80;;;1.67;;
4726;SDS011;2377;51.734;8.950;2022-07-15T01:09:22;5.10;;;2.00;;
4726;SDS011;2377;51.734;8.950;2022-07-15T01:11:49;5.03;;;2.30;;
4726;SDS011;2377;51.734;8.950;2022-07-15T01:14:16;2.73;;;1.53;;
4726;SDS011;2377;51.734;8.950;2022-07-15T01:16:44;4.03;;;1.50;;
4726;SDS011;2377;51.734;8.950;2022-07-15T01:19:11;3.67;;;1.60;;
4726;SDS011;2377;51.734;8.950;2022-07-15T01:21:40;6.60;;;1.87;;
4726;SDS011;2377;51.734;8.950;2022-07-15T01:24:07;3.60;;;1.70;;
4726;SDS011;2377;51.734;8.950;2022-07-15T01:26:34;2.50;;;1.50;;
4726;SDS011;2377;51.734;8.950;2022-07-15T01:29:02;2.50;;;1.30;;
4726;SDS011;2377;51.734;8.950;2022-07-15T01:31:29;3.50;;;1.70;;
4726;SDS011;2377;51.734;8.950;2022-07-15T01:33:56;6.60;;;2.00;;
4726;SDS011;2377;51.734;8.950;2022-07-15T01:36:23;3.70;;;1.90;;
4726;SDS011;2377;51.734;8.950;2022-07-15T01:38:51;3.43;;;1.90;;
4726;SDS011;2377;51.734;8.950;2022-07-15T01:41:18;4.10;;;1.87;;
4726;SDS011;2377;51.734;8.950;2022-07-15T01:43:47;6.97;;;1.70;;
4726;SDS011;2377;51.734;8.950;2022-07-15T01:46:14;2.67;;;1.40;;
4726;SDS011;2377;51.734;8.950;2022-07-15T01:48:41;2.70;;;1.60;;
4726;SDS011;2377;51.734;8.950;2022-07-15T01:51:41;3.87;;;1.77;;
4726;SDS011;2377;51.734;8.950;2022-07-15T01:54:09;4.70;;;1.67;;
4726;SDS011;2377;51.734;8.950;2022-07-15T01:56:36;3.10;;;1.57;;
4726;SDS011;2377;51.734;8.950;2022-07-15T01:59:03;6.40;;;2.20;;
4726;SDS011;2377;51.734;8.950;2022-07-15T02:01:31;4.93;;;2.30;;
4726;SDS011;2377;51.734;8.950;2022-07-15T02:03:59;3.60;;;1.80;;
4726;SDS011;2377;51.734;8.950;2022-07-15T02:06:26;3.70;;;1.80;;
4726;SDS011;2377;51.734;8.950;2022-07-15T02:08:54;8.20;;;2.63;;
4726;SDS011;2377;51.734;8.950;2022-07-15T02:11:22;6.60;;;2.40;;
4726;SDS011;2377;51.734;8.950;2022-07-15T02:13:49;5.93;;;2.50;;
4726;SDS011;2377;51.734;8.950;2022-07-15T02:16:19;6.50;;;2.33;;
4726;SDS011;2377;51.734;8.950;2022-07-15T02:18:46;3.30;;;1.70;;
4726;SDS011;2377;51.734;8.950;2022-07-15T02:21:13;6.87;;;2.27;;
4726;SDS011;2377;51.734;8.950;2022-07-15T02:23:40;4.30;;;2.17;;
4726;SDS011;2377;51.734;8.950;2022-07-15T02:26:07;5.67;;;1.90;;
4726;SDS011;2377;51.734;8.950;2022-07-15T02:28:36;8.00;;;2.13;;
4726;SDS011;2377;51.734;8.950;2022-07-15T02:31:04;6.43;;;2.30;;
4726;SDS011;2377;51.734;8.950;2022-07-15T02:33:31;6.40;;;2.27;;
4726;SDS011;2377;51.734;8.950;2022-07-15T02:35:58;6.57;;;2.30;;
4726;SDS011;2377;51.734;8.950;2022-07-15T02:38:26;5.33;;;2.30;;
4726;SDS011;2377;51.734;8.950;2022-07-15T02:40:53;5.93;;;2.03;;
4726;SDS011;2377;51.734;8.950;2022-07-15T02:43:20;6.37;;;2.57;;
4726;SDS011;2377;51.734;8.950;2022-07-15T02:45:49;5.17;;;2.27;;
4726;SDS011;2377;51.734;8.950;2022-07-15T02:48:16;4.73;;;2.10;;
4726;SDS011;2377;51.734;8.950;2022-07-15T02:50:43;4.77;;;2.13;;
4726;SDS011;2377;51.734;8.950;2022-07-15T02:53:11;5.30;;;2.50;;
4726;SDS011;2377;51.734;8.950;2022-07-15T02:55:38;10.30;;;2.40;;
4726;SDS011;2377;51.734;8.950;2022-07-15T02:58:05;6.40;;;2.10;;
4726;SDS011;2377;51.734;8.950;2022-07-15T03:00:33;5.87;;;1.90;;
4726;SDS011;2377;51.734;8.950;2022-07-15T03:03:01;6.03;;;2.43;;
4726;SDS011;2377;51.734;8.950;2022-07-15T03:05:29;4.30;;;2.27;;
4726;SDS011;2377;51.734;8.950;2022-07-15T03:07:56;4.97;;;2.10;;
4726;SDS011;2377;51.734;8.950;2022-07-15T03:10:23;6.37;;;2.40;;
4726;SDS011;2377;51.734;8.950;2022-07-15T03:12:50;4.80;;;2.30;;
4726;SDS011;2377;51.734;8.950;2022-07-15T03:15:18;4.30;;;1.97;;
4726;SDS011;2377;51.734;8.950;2022-07-15T03:17:45;4.10;;;2.03;;
4726;SDS011;2377;51.734;8.950;2022-07-15T03:20:13;7.13;;;2.63;;
4726;SDS011;2377;51.734;8.950;2022-07-15T03:22:40;6.03;;;2.47;;
4726;SDS011;2377;51.734;8.950;2022-07-15T03:25:08;6.53;;;2.20;;
4726;SDS011;2377;51.734;8.950;2022-07-15T03:27:35;4.30;;;2.30;;
4726;SDS011;2377;51.734;8.950;2022-07-15T03:30:03;5.73;;;2.67;;
4726;SDS011;2377;51.734;8.950;2022-07-15T03:32:31;5.87;;;2.00;;
4726;SDS011;2377;51.734;8.950;2022-07-15T03:34:58;4.47;;;2.20;;
4726;SDS011;2377;51.734;8.950;2022-07-15T03:37:27;5.67;;;2.10;;
4726;SDS011;2377;51.734;8.950;2022-07-15T03:39:54;5.60;;;2.33;;
4726;SDS011;2377;51.734;8.950;2022-07-15T03:42:21;5.20;;;2.37;;
4726;SDS011;2377;51.734;8.950;2022-07-15T03:44:48;5.33;;;2.33;;
4726;SDS011;2377;51.734;8.950;2022-07-15T03:47:15;7.20;;;2.83;;
4726;SDS011;2377;51.734;8.950;2022-07-15T03:49:42;6.13;;;2.20;;
4726;SDS011;2377;51.734;8.950;2022-07-15T03:52:09;8.20;;;2.10;;
4726;SDS011;2377;51.734;8.950;2022-07-15T03:54:38;6.60;;;2.13;;
4726;SDS011;2377;51.734;8.950;2022-07-15T03:57:05;3.60;;;1.90;;
4726;SDS011;2377;51.734;8.950;2022-07-15T03:59:32;4.27;;;2.03;;
4726;SDS011;2377;51.734;8.950;2022-07-15T04:01:59;3.23;;;1.83;;
4726;SDS011;2377;51.734;8.950;2022-07-15T04:04:26;4.43;;;1.80;;
4726;SDS011;2377;51.734;8.950;2022-07-15T04:06:56;5.50;;;2.13;;
4726;SDS011;2377;51.734;8.950;2022-07-15T04:09:23;4.87;;;2.10;;
4726;SDS011;2377;51.734;8.950;2022-07-15T04:11:52;5.40;;;2.00;;
4726;SDS011;2377;51.734;8.950;2022-07-15T04:14:19;5.50;;;2.30;;
4726;SDS011;2377;51.734;8.950;2022-07-15T04:16:47;4.90;;;2.20;;
4726;SDS011;2377;51.734;8.950;2022-07-15T04:19:14;5.53;;;1.90;;
4726;SDS011;2377;51.734;8.950;2022-07-15T04:21:42;4.30;;;2.10;;
4726;SDS011;2377;51.734;8.950;2022-07-15T04:24:09;4.03;;;1.90;;
4726;SDS011;2377;51.734;8.950;2022-07-15T04:26:37;4.93;;;2.17;;
4726;SDS011;2377;51.734;8.950;2022-07-15T04:29:06;4.00;;;2.30;;
4726;SDS011;2377;51.734;8.950;2022-07-15T04:31:33;4.80;;;2.63;;
4726;SDS011;2377;51.734;8.950;2022-07-15T04:34:00;5.20;;;2.30;;
4726;SDS011;2377;51.734;8.950;2022-07-15T04:36:27;7.10;;;2.40;;
4726;SDS011;2377;51.734;8.950;2022-07-15T04:38:54;5.60;;;1.90;;
4726;SDS011;2377;51.734;8.950;2022-07-15T04:41:21;5.77;;;2.30;;
4726;SDS011;2377;51.734;8.950;2022-07-15T04:43:48;9.20;;;2.57;;
4726;SDS011;2377;51.734;8.950;2022-07-15T04:46:16;4.40;;;2.57;;
4726;SDS011;2377;51.734;8.950;2022-07-15T04:48:44;4.37;;;1.80;;
4726;SDS011;2377;51.734;8.950;2022-07-15T04:51:28;4.67;;;1.90;;
4726;SDS011;2377;51.734;8.950;2022-07-15T04:53:55;6.47;;;2.40;;
4726;SDS011;2377;51.734;8.950;2022-07-15T04:56:23;6.90;;;2.93;;
4726;SDS011;2377;51.734;8.950;2022-07-15T04:58:50;7.63;;;2.50;;
4726;SDS011;2377;51.734;8.950;2022-07-15T05:01:18;4.70;;;2.57;;
4726;SDS011;2377;51.734;8.950;2022-07-15T05:03:45;6.50;;;2.30;;
4726;SDS011;2377;51.734;8.950;2022-07-15T05:06:12;12.67;;;2.73;;
4726;SDS011;2377;51.734;8.950;2022-07-15T05:08:39;7.50;;;2.40;;
4726;SDS011;2377;51.734;8.950;2022-07-15T05:11:06;4.00;;;2.33;;
4726;SDS011;2377;51.734;8.950;2022-07-15T05:13:35;7.50;;;2.60;;
4726;SDS011;2377;51.734;8.950;2022-07-15T05:16:03;5.43;;;2.47;;
4726;SDS011;2377;51.734;8.950;2022-07-15T05:18:32;7.57;;;2.60;;
4726;SDS011;2377;51.734;8.950;2022-07-15T05:20:59;9.37;;;2.23;;
4726;SDS011;2377;51.734;8.950;2022-07-15T05:23:26;6.63;;;2.40;;
4726;SDS011;2377;51.734;8.950;2022-07-15T05:25:53;7.50;;;2.10;;
4726;SDS011;2377;51.734;8.950;2022-07-15T05:28:21;9.20;;;2.43;;
4726;SDS011;2377;51.734;8.950;2022-07-15T05:30:48;7.10;;;2.50;;
4726;SDS011;2377;51.734;8.950;2022-07-15T05:33:15;6.43;;;2.23;;
4726;SDS011;2377;51.734;8.950;2022-07-15T05:35:44;8.10;;;2.30;;
4726;SDS011;2377;51.734;8.950;2022-07-15T05:38:11;5.93;;;2.00;;
4726;SDS011;2377;51.734;8.950;2022-07-15T05:40:38;6.00;;;2.13;;
4726;SDS011;2377;51.734;8.950;2022-07-15T05:43:05;8.50;;;2.50;;
4726;SDS011;2377;51.734;8.950;2022-07-15T05:45:32;6.17;;;2.13;;
4726;SDS011;2377;51.734;8.950;2022-07-15T05:48:00;8.33;;;2.73;;
4726;SDS011;2377;51.734;8.950;2022-07-15T05:50:27;8.70;;;2.47;;
4726;SDS011;2377;51.734;8.950;2022-07-15T05:52:56;8.53;;;2.57;;
4726;SDS011;2377;51.734;8.950;2022-07-15T05:55:23;6.00;;;2.13;;
4726;SDS011;2377;51.734;8.950;2022-07-15T05:57:50;7.13;;;2.20;;
4726;SDS011;2377;51.734;8.950;2022-07-15T06:00:17;14.87;;;2.90;;
4726;SDS011;2377;51.734;8.950;2022-07-15T06:02:44;10.23;;;2.83;;
4726;SDS011;2377;51.734;8.950;2022-07-15T06:05:11;10.90;;;2.50;;
4726;SDS011;2377;51.734;8.950;2022-07-15T06:07:39;6.70;;;2.10;;
4726;SDS011;2377;51.734;8.950;2022-07-15T06:10:08;11.60;;;2.80;;
4726;SDS011;2377;51.734;8.950;2022-07-15T06:12:35;12.97;;;2.10;;
4726;SDS011;2377;51.734;8.950;2022-07-15T06:15:03;7.70;;;2.40;;
4726;SDS011;2377;51.734;8.950;2022-07-15T06:17:31;7.77;;;2.43;;
4726;SDS011;2377;51.734;8.950;2022-07-15T06:19:59;9.57;;;2.20;;
4726;SDS011;2377;51.734;8.950;2022-07-15T06:22:26;8.57;;;2.20;;
4726;SDS011;2377;51.734;8.950;2022-07-15T06:24:53;7.80;;;2.20;;
4726;SDS011;2377;51.734;8.950;2022-07-15T06:27:22;10.63;;;3.17;;
4726;SDS011;2377;51.734;8.950;2022-07-15T06:29:49;7.43;;;2.03;;
4726;SDS011;2377;51.734;8.950;2022-07-15T06:32:17;9.60;;;2.23;;
4726;SDS011;2377;51.734;8.950;2022-07-15T06:34:45;5.80;;;2.07;;
4726;SDS011;2377;51.734;8.950;2022-07-15T06:37:12;13.07;;;2.53;;
4726;SDS011;2377;51.734;8.950;2022-07-15T06:39:39;4.87;;;2.10;;
4726;SDS011;2377;51.734;8.950;2022-07-15T06:42:07;11.00;;;2.40;;
4726;SDS011;2377;51.734;8.950;2022-07-15T06:44:35;12.27;;;2.80;;
4726;SDS011;2377;51.734;8.950;2022-07-15T06:47:02;8.57;;;2.17;;
4726;SDS011;2377;51.734;8.950;2022-07-15T06:49:31;9.23;;;2.50;;
4726;SDS011;2377;51.734;8.950;2022-07-15T06:51:59;10.93;;;2.30;;
4726;SDS011;2377;51.734;8.950;2022-07-15T06:54:27;4.87;;;2.30;;
4726;SDS011;2377;51.734;8.950;2022-07-15T06:56:55;10.10;;;2.70;;
4726;SDS011;2377;51.734;8.950;2022-07-15T06:59:22;7.87;;;2.33;;
4726;SDS011;2377;51.734;8.950;2022-07-15T07:01:51;5.60;;;2.20;;
4726;SDS011;2377;51.734;8.950;2022-07-15T07:04:18;8.10;;;2.60;;
4726;SDS011;2377;51.734;8.950;2022-07-15T07:06:45;9.37;;;2.53;;
4726;SDS011;2377;51.734;8.950;2022-07-15T07:09:12;6.93;;;2.47;;
4726;SDS011;2377;51.734;8.950;2022-07-15T07:11:39;7.33;;;2.60;;
4726;SDS011;2377;51.734;8.950;2022-07-15T07:14:07;11.50;;;2.67;;
4726;SDS011;2377;51.734;8.950;2022-07-15T07:16:37;8.00;;;2.30;;
4726;SDS011;2377;51.734;8.950;2022-07-15T07:19:05;8.43;;;2.60;;
4726;SDS011;2377;51.734;8.950;2022-07-15T07:21:32;8.20;;;2.13;;
4726;SDS011;2377;51.734;8.950;2022-07-15T07:23:59;10.10;;;2.90;;
4726;SDS011;2377;51.734;8.950;2022-07-15T07:26:26;7.83;;;2.70;;
4726;SDS011;2377;51.734;8.950;2022-07-15T07:28:54;6.33;;;2.50;;
4726;SDS011;2377;51.734;8.950;2022-07-15T07:31:21;8.37;;;2.50;;
4726;SDS011;2377;51.734;8.950;2022-07-15T07:33:51;6.50;;;2.20;;
4726;SDS011;2377;51.734;8.950;2022-07-15T07:36:21;9.10;;;2.90;;
4726;SDS011;2377;51.734;8.950;2022-07-15T07:38:49;9.20;;;2.40;;
4726;SDS011;2377;51.734;8.950;2022-07-15T07:41:18;6.60;;;1.90;;
4726;SDS011;2377;51.734;8.950;2022-07-15T07:43:45;6.47;;;2.17;;
4726;SDS011;2377;51.734;8.950;2022-07-15T07:46:12;7.23;;;1.77;;
4726;SDS011;2377;51.734;8.950;2022-07-15T07:48:42;10.57;;;2.07;;
4726;SDS011;2377;51.734;8.950;2022-07-15T07:51:09;8.90;;;1.93;;
4726;SDS011;2377;51.734;8.950;2022-07-15T07:53:37;7.87;;;1.50;;
4726;SDS011;2377;51.734;8.950;2022-07-15T07:56:05;6.43;;;2.20;;
4726;SDS011;2377;51.734;8.950;2022-07-15T07:58:33;7.40;;;1.73;;
4726;SDS011;2377;51.734;8.950;2022-07-15T08:01:00;6.30;;;1.80;;
4726;SDS011;2377;51.734;8.950;2022-07-15T08:03:27;4.23;;;1.43;;
4726;SDS011;2377;51.734;8.950;2022-07-15T08:05:55;8.37;;;1.97;;
4726;SDS011;2377;51.734;8.950;2022-07-15T08:08:22;11.23;;;2.30;;
4726;SDS011;2377;51.734;8.950;2022-07-15T08:10:52;9.07;;;2.20;;
4726;SDS011;2377;51.734;8.950;2022-07-15T08:13:22;5.33;;;1.93;;
4726;SDS011;2377;51.734;8.950;2022-07-15T08:15:53;6.40;;;2.10;;
4726;SDS011;2377;51.734;8.950;2022-07-15T08:18:21;4.73;;;2.13;;
4726;SDS011;2377;51.734;8.950;2022-07-15T08:20:49;6.80;;;2.07;;
4726;SDS011;2377;51.734;8.950;2022-07-15T08:23:16;10.10;;;2.20;;
4726;SDS011;2377;51.734;8.950;2022-07-15T08:25:46;4.97;;;1.73;;
4726;SDS011;2377;51.734;8.950;2022-07-15T08:28:16;4.03;;;1.20;;
4726;SDS011;2377;51.734;8.950;2022-07-15T08:30:44;5.17;;;1.50;;
4726;SDS011;2377;51.734;8.950;2022-07-15T08:33:12;6.53;;;2.10;;
4726;SDS011;2377;51.734;8.950;2022-07-15T08:35:40;6.43;;;1.50;;
4726;SDS011;2377;51.734;8.950;2022-07-15T08:38:08;5.03;;;1.57;;
4726;SDS011;2377;51.734;8.950;2022-07-15T08:40:37;6.17;;;1.53;;
4726;SDS011;2377;51.734;8.950;2022-07-15T08:43:05;4.70;;;1.53;;
4726;SDS011;2377;51.734;8.950;2022-07-15T08:45:36;5.80;;;1.70;;
4726;SDS011;2377;51.734;8.950;2022-07-15T08:48:07;3.70;;;1.50;;
4726;SDS011;2377;51.734;8.950;2022-07-15T08:50:36;8.43;;;1.50;;
4726;SDS011;2377;51.734;8.950;2022-07-15T08:53:03;4.40;;;1.57;;
4726;SDS011;2377;51.734;8.950;2022-07-15T08:55:31;3.07;;;1.27;;
4726;SDS011;2377;51.734;8.950;2022-07-15T08:57:58;5.07;;;1.30;;
4726;SDS011;2377;51.734;8.950;2022-07-15T09:00:26;3.10;;;1.30;;
4726;SDS011;2377;51.734;8.950;2022-07-15T09:02:57;5.07;;;1.50;;
4726;SDS011;2377;51.734;8.950;2022-07-15T09:05:26;5.30;;;1.67;;
4726;SDS011;2377;51.734;8.950;2022-07-15T09:07:59;5.80;;;1.53;;
4726;SDS011;2377;51.734;8.950;2022-07-15T09:10:43;6.73;;;1.43;;
4726;SDS011;2377;51.734;8.950;2022-07-15T09:13:23;5.50;;;1.70;;
4726;SDS011;2377;51.734;8.950;2022-07-15T09:15:56;4.30;;;1.60;;
4726;SDS011;2377;51.734;8.950;2022-07-15T09:18:28;3.57;;;1.07;;
4726;SDS011;2377;51.734;8.950;2022-07-15T09:20:58;4.00;;;1.27;;
4726;SDS011;2377;51.734;8.950;2022-07-15T09:23:27;6.30;;;1.53;;
4726;SDS011;2377;51.734;8.950;2022-07-15T09:25:57;7.50;;;1.47;;
4726;SDS011;2377;51.734;8.950;2022-07-15T09:28:47;5.30;;;1.10;;
4726;SDS011;2377;51.734;8.950;2022-07-15T09:31:25;3.23;;;1.03;;
4726;SDS011;2377;51.734;8.950;2022-07-15T09:34:15;3.50;;;1.10;;
4726;SDS011;2377;51.734;8.950;2022-07-15T09:36:44;4.53;;;1.07;;
4726;SDS011;2377;51.734;8.950;2022-07-15T09:39:17;7.50;;;1.40;;
4726;SDS011;2377;51.734;8.950;2022-07-15T09:41:47;6.10;;;1.40;;
4726;SDS011;2377;51.734;8.950;2022-07-15T09:44:15;4.70;;;1.20;;
4726;SDS011;2377;51.734;8.950;2022-07-15T09:46:44;6.20;;;1.73;;
4726;SDS011;2377;51.734;8.950;2022-07-15T09:49:18;3.07;;;1.10;;
4726;SDS011;2377;51.734;8.950;2022-07-15T09:51:59;2.87;;;1.10;;
4726;SDS011;2377;51.734;8.950;2022-07-15T09:54:32;3.80;;;1.70;;
4726;SDS011;2377;51.734;8.950;2022-07-15T09:57:02;5.90;;;1.40;;
4726;SDS011;2377;51.734;8.950;2022-07-15T09:59:32;2.60;;;1.20;;
4726;SDS011;2377;51.734;8.950;2022-07-15T10:02:00;3.00;;;1.00;;
4726;SDS011;2377;51.734;8.950;2022-07-15T10:04:29;3.83;;;1.30;;
4726;SDS011;2377;51.734;8.950;2022-07-15T10:06:58;4.80;;;1.60;;
4726;SDS011;2377;51.734;8.950;2022-07-15T10:09:26;7.33;;;1.77;;
4726;SDS011;2377;51.734;8.950;2022-07-15T10:11:56;4.03;;;1.53;;
4726;SDS011;2377;51.734;8.950;2022-07-15T10:14:33;8.00;;;1.50;;
4726;SDS011;2377;51.734;8.950;2022-07-15T10:17:29;4.43;;;1.40;;
4726;SDS011;2377;51.734;8.950;2022-07-15T10:20:38;4.70;;;1.50;;
4726;SDS011;2377;51.734;8.950;2022-07-15T10:23:34;6.93;;;1.70;;
4726;SDS011;2377;51.734;8.950;2022-07-15T10:26:25;4.70;;;1.53;;
4726;SDS011;2377;51.734;8.950;2022-07-15T10:29:09;3.50;;;1.20;;
4726;SDS011;2377;51.734;8.950;2022-07-15T10:31:38;4.03;;;1.37;;
4726;SDS011;2377;51.734;8.950;2022-07-15T10:34:18;6.27;;;1.63;;
4726;SDS011;2377;51.734;8.950;2022-07-15T10:36:56;4.97;;;1.47;;
4726;SDS011;2377;51.734;8.950;2022-07-15T10:39:51;7.33;;;1.80;;
4726;SDS011;2377;51.734;8.950;2022-07-15T10:42:23;6.33;;;1.70;;
4726;SDS011;2377;51.734;8.950;2022-07-15T10:45:02;3.40;;;1.30;;
4726;SDS011;2377;51.734;8.950;2022-07-15T10:47:32;5.33;;;1.20;;
4726;SDS011;2377;51.734;8.950;2022-07-15T10:50:00;7.37;;;1.70;;
4726;SDS011;2377;51.734;8.950;2022-07-15T10:53:16;4.13;;;1.27;;
4726;SDS011;2377;51.734;8.950;2022-07-15T10:55:52;2.80;;;1.23;;
4726;SDS011;2377;51.734;8.950;2022-07-15T10:58:19;5.33;;;1.30;;
4726;SDS011;2377;51.734;8.950;2022-07-15T11:00:47;6.57;;;1.50;;
4726;SDS011;2377;51.734;8.950;2022-07-15T11:03:15;2.53;;;1.10;;
4726;SDS011;2377;51.734;8.950;2022-07-15T11:06:02;7.63;;;1.83;;
4726;SDS011;2377;51.734;8.950;2022-07-15T11:08:49;4.40;;;1.20;;
4726;SDS011;2377;51.734;8.950;2022-07-15T11:17:13;7.13;;;1.83;;
4726;SDS011;2377;51.734;8.950;2022-07-15T11:19:45;4.63;;;1.43;;
4726;SDS011;2377;51.734;8.950;2022-07-15T11:22:15;4.93;;;1.40;;
4726;SDS011;2377;51.734;8.950;2022-07-15T11:24:45;4.93;;;1.50;;
4726;SDS011;2377;51.734;8.950;2022-07-15T11:27:12;4.63;;;1.63;;
4726;SDS011;2377;51.734;8.950;2022-07-15T11:29:41;4.70;;;1.73;;
4726;SDS011;2377;51.734;8.950;2022-07-15T11:32:15;4.60;;;1.60;;
4726;SDS011;2377;51.734;8.950;2022-07-15T11:34:47;3.50;;;1.30;;
4726;SDS011;2377;51.734;8.950;2022-07-15T11:37:16;5.50;;;1.47;;
4726;SDS011;2377;51.734;8.950;2022-07-15T11:39:48;4.97;;;1.50;;
4726;SDS011;2377;51.734;8.950;2022-07-15T11:42:30;4.67;;;1.43;;
4726;SDS011;2377;51.734;8.950;2022-07-15T11:45:15;4.33;;;1.50;;
4726;SDS011;2377;51.734;8.950;2022-07-15T11:48:00;5.63;;;1.50;;
4726;SDS011;2377;51.734;8.950;2022-07-15T11:50:27;6.40;;;1.60;;
4726;SDS011;2377;51.734;8.950;2022-07-15T11:52:55;3.87;;;1.20;;
4726;SDS011;2377;51.734;8.950;2022-07-15T11:55:25;4.60;;;1.20;;
4726;SDS011;2377;51.734;8.950;2022-07-15T11:57:52;5.37;;;1.57;;
4726;SDS011;2377;51.734;8.950;2022-07-15T12:00:27;3.17;;;1.20;;
4726;SDS011;2377;51.734;8.950;2022-07-15T12:03:05;3.80;;;1.30;;
4726;SDS011;2377;51.734;8.950;2022-07-15T12:05:34;2.77;;;1.30;;
4726;SDS011;2377;51.734;8.950;2022-07-15T12:08:01;7.47;;;1.67;;
4726;SDS011;2377;51.734;8.950;2022-07-15T12:10:36;3.43;;;1.40;;
4726;SDS011;2377;51.734;8.950;2022-07-15T12:13:04;5.93;;;1.43;;
4726;SDS011;2377;51.734;8.950;2022-07-15T12:15:31;5.07;;;1.67;;
4726;SDS011;2377;51.734;8.950;2022-07-15T12:17:59;5.97;;;1.33;;
4726;SDS011;2377;51.734;8.950;2022-07-15T12:20:27;4.20;;;1.20;;
4726;SDS011;2377;51.734;8.950;2022-07-15T12:23:05;3.23;;;1.30;;
4726;SDS011;2377;51.734;8.950;2022-07-15T12:25:36;2.93;;;1.13;;
4726;SDS011;2377;51.734;8.950;2022-07-15T12:28:04;4.50;;;1.40;;
4726;SDS011;2377;51.734;8.950;2022-07-15T12:30:32;5.23;;;1.50;;
4726;SDS011;2377;51.734;8.950;2022-07-15T12:33:15;3.50;;;1.23;;
4726;SDS011;2377;51.734;8.950;2022-07-15T12:35:43;2.90;;;1.20;;
4726;SDS011;2377;51.734;8.950;2022-07-15T12:38:17;2.97;;;1.07;;
4726;SDS011;2377;51.734;8.950;2022-07-15T12:40:55;3.50;;;1.20;;
4726;SDS011;2377;51.734;8.950;2022-07-15T12:43:47;7.30;;;1.43;;
4726;SDS011;2377;51.734;8.950;2022-07-15T12:49:41;4.50;;;1.20;;
4726;SDS011;2377;51.734;8.950;2022-07-15T12:52:23;4.10;;;1.30;;
4726;SDS011;2377;51.734;8.950;2022-07-15T12:54:56;2.80;;;1.30;;
4726;SDS011;2377;51.734;8.950;2022-07-15T12:57:39;6.13;;;1.80;;
4726;SDS011;2377;51.734;8.950;2022-07-15T13:00:09;5.30;;;1.67;;
4726;SDS011;2377;51.734;8.950;2022-07-15T13:02:57;3.10;;;1.20;;
4726;SDS011;2377;51.734;8.950;2022-07-15T13:05:28;3.37;;;1.40;;
4726;SDS011;2377;51.734;8.950;2022-07-15T13:08:02;4.27;;;1.40;;
4726;SDS011;2377;51.734;8.950;2022-07-15T13:10:30;4.73;;;1.37;;
4726;SDS011;2377;51.734;8.950;2022-07-15T13:12:58;6.80;;;1.33;;
4726;SDS011;2377;51.734;8.950;2022-07-15T13:15:25;4.20;;;1.10;;
4726;SDS011;2377;51.734;8.950;2022-07-15T13:20:22;5.30;;;1.50;;
4726;SDS011;2377;51.734;8.950;2022-07-15T13:22:50;3.87;;;1.40;;
4726;SDS011;2377;51.734;8.950;2022-07-15T13:25:18;4.43;;;1.10;;
4726;SDS011;2377;51.734;8.950;2022-07-15T13:27:45;4.87;;;1.27;;
4726;SDS011;2377;51.734;8.950;2022-07-15T13:30:13;5.37;;;1.33;;
4726;SDS011;2377;51.734;8.950;2022-07-15T13:32:40;3.43;;;1.07;;
4726;SDS011;2377;51.734;8.950;2022-07-15T13:35:09;5.80;;;1.40;;
4726;SDS011;2377;51.734;8.950;2022-07-15T13:37:39;2.50;;;1.20;;
4726;SDS011;2377;51.734;8.950;2022-07-15T13:40:07;3.10;;;1.07;;
4726;SDS011;2377;51.734;8.950;2022-07-15T13:42:37;4.30;;;1.17;;
4726;SDS011;2377;51.734;8.950;2022-07-15T13:45:05;3.90;;;1.40;;
4726;SDS011;2377;51.734;8.950;2022-07-15T13:47:35;2.90;;;1.10;;
4726;SDS011;2377;51.734;8.950;2022-07-15T13:50:02;6.80;;;1.60;;
4726;SDS011;2377;51.734;8.950;2022-07-15T13:52:50;10.80;;;1.40;;
4726;SDS011;2377;51.734;8.950;2022-07-15T13:55:20;7.83;;;1.30;;
4726;SDS011;2377;51.734;8.950;2022-07-15T13:57:49;4.80;;;1.10;;
4726;SDS011;2377;51.734;8.950;2022-07-15T14:00:17;6.70;;;1.17;;
4726;SDS011;2377;51.734;8.950;2022-07-15T14:02:47;2.47;;;1.07;;
4726;SDS011;2377;51.734;8.950;2022-07-15T14:05:16;4.97;;;1.27;;
4726;SDS011;2377;51.734;8.950;2022-07-15T14:07:45;2.77;;;1.17;;
4726;SDS011;2377;51.734;8.950;2022-07-15T14:10:14;3.03;;;1.10;;
4726;SDS011;2377;51.734;8.950;2022-07-15T14:12:43;4.33;;;1.30;;
4726;SDS011;2377;51.734;8.950;2022-07-15T14:15:12;7.77;;;1.40;;
4726;SDS011;2377;51.734;8.950;2022-07-15T14:17:39;3.33;;;1.10;;
4726;SDS011;2377;51.734;8.950;2022-07-15T14:20:06;5.20;;;1.27;;
4726;SDS011;2377;51.734;8.950;2022-07-15T14:22:34;4.13;;;1.30;;
4726;SDS011;2377;51.734;8.950;2022-07-15T14:25:02;4.23;;;1.10;;
4726;SDS011;2377;51.734;8.950;2022-07-15T14:27:34;4.57;;;1.00;;
4726;SDS011;2377;51.734;8.950;2022-07-15T14:30:02;2.77;;;1.20;;
4726;SDS011;2377;51.734;8.950;2022-07-15T14:32:31;4.90;;;1.27;;
4726;SDS011;2377;51.734;8.950;2022-07-15T14:34:59;3.43;;;1.20;;
4726;SDS011;2377;51.734;8.950;2022-07-15T14:37:26;2.60;;;1.10;;
4726;SDS011;2377;51.734;8.950;2022-07-15T14:39:53;2.53;;;1.07;;
4726;SDS011;2377;51.734;8.950;2022-07-15T14:42:20;2.80;;;1.10;;
4726;SDS011;2377;51.734;8.950;2022-07-15T14:44:49;2.43;;;1.20;;
4726;SDS011;2377;51.734;8.950;2022-07-15T14:47:16;3.13;;;1.10;;
4726;SDS011;2377;51.734;8.950;2022-07-15T14:49:43;2.23;;;1.07;;
4726;SDS011;2377;51.734;8.950;2022-07-15T14:52:10;3.00;;;1.10;;
4726;SDS011;2377;51.734;8.950;2022-07-15T14:54:37;5.17;;;1.40;;
4726;SDS011;2377;51.734;8.950;2022-07-15T14:57:04;2.50;;;1.20;;
4726;SDS011;2377;51.734;8.950;2022-07-15T14:59:32;4.70;;;1.17;;
4726;SDS011;2377;51.734;8.950;2022-07-15T15:02:04;8.07;;;1.40;;
4726;SDS011;2377;51.734;8.950;2022-07-15T15:04:32;2.57;;;1.00;;
4726;SDS011;2377;51.734;8.950;2022-07-15T15:07:02;2.47;;;1.00;;
4726;SDS011;2377;51.734;8.950;2022-07-15T15:09:29;4.37;;;0.90;;
4726;SDS011;2377;51.734;8.950;2022-07-15T15:11:58;2.43;;;1.20;;
4726;SDS011;2377;51.734;8.950;2022-07-15T15:14:25;3.73;;;1.03;;
4726;SDS011;2377;51.734;8.950;2022-07-15T15:16:52;3.80;;;1.33;;
4726;SDS011;2377;51.734;8.950;2022-07-15T15:19:20;4.07;;;1.37;;
4726;SDS011;2377;51.734;8.950;2022-07-15T15:21:48;2.53;;;1.10;;
4726;SDS011;2377;51.734;8.950;2022-07-15T15:24:15;4.20;;;1.20;;
4726;SDS011;2377;51.734;8.950;2022-07-15T15:26:43;2.73;;;1.20;;
4726;SDS011;2377;51.734;8.950;2022-07-15T15:29:11;3.17;;;1.20;;
4726;SDS011;2377;51.734;8.950;2022-07-15T15:31:39;4.73;;;1.10;;
4726;SDS011;2377;51.734;8.950;2022-07-15T15:34:06;3.40;;;1.30;;
4726;SDS011;2377;51.734;8.950;2022-07-15T15:36:35;3.30;;;1.10;;
4726;SDS011;2377;51.734;8.950;2022-07-15T15:39:02;2.10;;;0.93;;
4726;SDS011;2377;51.734;8.950;2022-07-15T15:41:32;5.13;;;1.30;;
4726;SDS011;2377;51.734;8.950;2022-07-15T15:43:59;2.00;;;1.00;;